KPIR/PIR METAR and TAF weather

Enter ICAO airport designator
Station Type Date Time Source
KPIR METAR 2021/07/30 06:48 UTC NOAA

KPIR 300648Z AUTO 06004KT 2 1/2SM HZ BKN032 OVC120 19/10 A3015 RMK AO2


Station Type Date Time Source
KPIR Decoded METAR 2021/07/30 06:48 UTC NOAA

PIERRE REGIONAL AIRPORT, SD, United States (KPIR) 44-23N 100-17W 526M
Jul 30, 2021 - 02:48 AM EDT / 2021.07.30 0648 UTC
Wind: from the ENE (060 degrees) at 5 MPH (4 KT):0
Visibility: 2 1/2 mile(s):0
Sky conditions: overcast
Weather: haze
Temperature: 66 F (19 C)
Dew Point: 50 F (10 C)
Relative Humidity: 55%
Pressure (altimeter): 30.15 in. Hg (1020 hPa)
ob: KPIR 300648Z AUTO 06004KT 2 1/2SM HZ BKN032 OVC120 19/10 A3015 RMK AO2
cycle: 7

Station Type Date Time Source
KPIR TAF 2021/07/30 06:40 UTC NOAA

TAF KPIR 300537Z 3006/3106 10008KT 5SM FU BKN035
FM301200 12009KT 4SM -SHRA FU VCTS OVC070CB
FM301600 10012G18KT 3SM FU OVC060
FM301900 11012G18KT 3SM FU BKN025
FM302200 12010G17KT 6SM FU BKN035
FM310000 10009KT P6SM SCT090

Example: see airport list